Aviation Digital Data Service (ADDS)

Output produced by METARs form (1339 UTC 26 August 2016)
found at http://www.aviationweather.gov/adds/metars/
 
KJST 261254Z AUTO 28008KT 7SM BKN006 22/21 A3018 RMK AO2 CIG 004V010 SLP202 T02220211
KJST 261249Z AUTO 27006KT 7SM BKN006 BKN017 22/21 A3018 RMK AO2 CIG 003V009
KJST 261240Z AUTO 28006KT 7SM SCT004 SCT008 22/21 A3018 RMK AO2 T02220211
KJST 261225Z AUTO 27004KT 5SM BR BKN004 BKN014 22/21 A3017 RMK AO2 T02170211
KJST 261207Z AUTO 27005KT 4SM BR SCT004 BKN008 BKN014 21/21 A3017 RMK AO2 CIG 006V010 T02110211
KJST 261154Z AUTO 27005KT 5SM BR SCT009 BKN017 21/21 A3017 RMK AO2 SLP201 70039 T02110206 10217 20206 51014
KJST 261110Z AUTO 28008KT 6SM BR FEW005 FEW011 SCT021 21/21 A3016 RMK AO2 T02110206
KJST 261054Z AUTO 27005KT 6SM BR FEW009 SCT013 BKN021 21/21 A3016 RMK AO2 SLP197 T02110206
KJST 261022Z AUTO 28008KT 9SM FEW009 BKN016 21/21 A3016 RMK AO2 T02110206
KJST 260954Z AUTO 28008KT 10SM CLR 21/21 A3015 RMK AO2 SLP190 T02060206
KJST 260854Z AUTO 22003KT 10SM SCT033 21/21 A3013 RMK AO2 SLP185 T02060206 51005
KJST 260754Z AUTO 28008KT 10SM FEW024 FEW035 BKN044 21/20 A3013 RMK AO2 SLP184 T02110200
KJST 260702Z AUTO 27007KT 10SM SCT004 BKN041 BKN049 21/21 A3012 RMK AO2 T02110211
KJST 260654Z AUTO 25008KT 10SM BKN006 OVC041 21/21 A3013 RMK AO2 CIG 002V009 SLP185 T02110211
KJST 260635Z AUTO 24008KT 10SM BKN006 BKN037 21/21 A3013 RMK AO2 CIG 003V009 T02110211
KJST 260626Z AUTO 24006KT 10SM SCT007 BKN033 BKN040 21/21 A3013 RMK AO2 T02110211
KJST 260604Z AUTO 26007KT 10SM FEW060 21/21 A3012 RMK AO2 LTG DSNT SE T02110206
KJST 260554Z AUTO 26008KT 10SM VCTS FEW060 21/20 A3011 RMK AO2 LTG DSNT SE AND S RAE38 TSE02B17E45 SLP179 P0039 60039 T02110200 10256 20211 58000
KJST 260551Z AUTO 25008KT 10SM VCTS FEW024 FEW065 21/21 A3012 RMK AO2 LTG DSNT SE AND S RAE38 TSE02B17E45 P0039
KJST 260541Z AUTO 26007KT 10SM TS FEW006 SCT016 21/21 A3012 RMK AO2 LTG DSNT SE-W RAE38 TSE02B17 P0039 T02110206
KJST 260533Z AUTO 28007KT 3SM -TSRA BR FEW005 BKN020 BKN080 21/21 A3012 RMK AO2 LTG DSNT S-W TSE02B17 P0039 T02110211
KJST 260518Z AUTO 30015KT 1 1/2SM +TSRA BR SCT009 BKN017 OVC027 22/21 A3013 RMK AO2 LTG DSNT E AND SW AND NW TSE02B17 P0025 T02170211
KJST 260515Z AUTO 31017KT 5SM VCTS -RA BR FEW010 BKN015 OVC055 22/21 A3013 RMK AO2 LTG DSNT E AND SW AND NW TSE02 P0006 T02170211
KJST 260504Z AUTO 32008KT 6SM VCTS -RA BR BKN013 BKN019 OVC029 22/21 A3011 RMK AO2 LTG DSNT ALQDS TSE02 P0002 T02220211
KJST 260454Z AUTO 36011G15KT 10SM -TSRA FEW011 BKN019 OVC070 23/21 A3012 RMK AO2 LTG DSNT ALQDS RAB48 TSB35 SLP182 P0000 T02280211 402830200
KJST 260449Z AUTO VRB06KT 9SM -TSRA BKN017 BKN022 BKN060 24/22 A3011 RMK AO2 LTG DSNT NW-E RAB48 TSB35 P0000
KJST 260441Z AUTO 25007KT 9SM TS SCT020 BKN060 BKN075 24/22 A3011 RMK AO2 LTG DSNT NW-E TSB35 T02390222
KJST 260405Z AUTO 23006KT 7SM VCTS FEW018 SCT023 BKN070 23/22 A3010 RMK AO2 LTG DSNT NW-E T02330222
KJST 260354Z AUTO 21008KT 7SM VCTS FEW019 BKN029 23/22 A3009 RMK AO2 LTG DSNT NW-E SLP171 T02330222
KJST 260352Z AUTO 21007KT 7SM VCTS SCT019 BKN029 23/22 A3009 RMK AO2 LTG DSNT NW-NE
KJST 260254Z AUTO 21007KT 9SM FEW023 24/22 A3010 RMK AO2 LTG DSNT N AND NW SLP176 T02390222 55001
KJST 260154Z AUTO 20009KT 10SM FEW120 24/22 A3009 RMK AO2 SLP173 T02440217
KJST 260054Z AUTO 21007KT 10SM SCT023 25/21 A3010 RMK AO2 SLP176 T02500211
KJST 252354Z AUTO 22007KT 10SM FEW027 26/21 A3010 RMK AO2 SLP177 T02560211 10283 20256 55002
KJST 252254Z AUTO 25007KT 10SM FEW029 SCT037 27/21 A3010 RMK AO2 SLP175 T02670211
KJST 252154Z AUTO 26007KT 10SM FEW034 27/21 A3010 RMK AO2 SLP177 T02670206
KJST 252054Z AUTO 26008KT 10SM SCT034 28/20 A3011 RMK AO2 SLP178 T02780200 56009
KJST 251954Z AUTO 24007KT 210V280 10SM SCT033 27/20 A3012 RMK AO2 SLP180 T02720200
KJST 251854Z AUTO 24010KT 10SM SCT030 28/21 A3013 RMK AO2 SLP184 T02780206
KJST 251754Z AUTO 24007KT 10SM SCT027 BKN035 26/20 A3014 RMK AO2 SLP188 T02610200 10267 20206 55002
KJST 251737Z AUTO 28011KT 10SM SCT023 SCT028 27/21 A3013 RMK AO2 T02670206
KJST 251714Z AUTO 25008KT 10SM BKN022 BKN026 25/21 A3013 RMK AO2 T02500206
KJST 251654Z AUTO 25008KT 10SM SCT018 26/21 A3013 RMK AO2 SLP186 T02560206
KJST 251612Z AUTO 25008KT 10SM FEW013 SCT019 BKN035 25/21 A3014 RMK AO2 T02500211
KJST 251554Z AUTO 24005KT 10SM SCT014 BKN019 OVC033 23/21 A3014 RMK AO2 SLP192 T02330206
KJST 251552Z AUTO 24005KT 10SM SCT014 BKN019 OVC033 23/21 A3014 RMK AO2
KJST 251454Z AUTO 26008KT 10SM OVC012 23/21 A3014 RMK AO2 SLP193 T02280206 51005
KJST 251447Z AUTO 27007KT 10SM BKN010 OVC016 23/21 A3015 RMK AO2 CIG 007V013 T02280206
KJST 251354Z AUTO 24009KT 10SM BKN007 OVC011 22/21 A3014 RMK AO2 SLP192 T02170206
KJST 251316Z AUTO 25008KT 10SM OVC009 22/21 A3014 RMK AO2 CIG 006V012 T02170206
KJST 251254Z AUTO 24008KT 10SM OVC010 21/21 A3013 RMK AO2 CIG 008V013 SLP189 T02110206
KJST 251233Z AUTO 24008KT 10SM BKN010 OVC015 21/20 A3014 RMK AO2 CIG 008V013 T02110200
KJST 251218Z AUTO 22010KT 10SM BKN015 OVC024 21/20 A3013 RMK AO2 T02110200
KJST 251154Z AUTO 23010KT 10SM BKN014 OVC027 21/20 A3013 RMK AO2 RAE14 SLP186 P0000 60002 70002 T02060200 10217 20200 55000
KJST 251054Z AUTO 24009KT 3SM RA BR OVC019 21/19 A3012 RMK AO2 RAB36 SLP182 P0002 T02060189
KJST 251037Z AUTO 23008KT 10SM -RA BKN022 BKN055 22/19 A3012 RMK AO2 RAB36 P0000 T02170189
KJST 250954Z AUTO 20012KT 10SM FEW065 21/18 A3011 RMK AO2 SLP179 T02110183
KJST 250854Z AUTO 21010KT 10SM SCT055 21/18 A3013 RMK AO2 SLP184 T02110183 58009
KJST 250754Z AUTO 20007KT 10SM CLR 21/18 A3014 RMK AO2 SLP189 T02110178
KJST 250654Z AUTO 19008KT 10SM CLR 21/17 A3015 RMK AO2 SLP190 T02110172
KJST 250554Z AUTO 18005KT 10SM CLR 21/18 A3016 RMK AO2 SLP194 T02060178 10244 20200 58012
KJST 250454Z AUTO 17006KT 10SM CLR 21/18 A3017 RMK AO2 SLP199 T02060178 402720161
KJST 250354Z AUTO 19005KT 10SM CLR 21/17 A3018 RMK AO2 SLP205 T02110172
KJST 250254Z AUTO 17009KT 10SM CLR 21/17 A3019 RMK AO2 SLP210 T02110172 58001
KJST 250154Z AUTO 16008KT 10SM CLR 22/17 A3020 RMK AO2 SLP214 T02170172